AMQ347 LOWW-LBSF
Flight info
| Callsign | AMQ347 |
|---|---|
| Flight time | 1h 13m |
| Altitude | 37000 |
| Route | ARSIN DCT NALOX DCT NIKAB DCT BABIT DCT LULIK DCT NIVIS DCT BGD DCT RAVAK DCT NISVA |
| Aircraft | A320/M-SDE3FGHIRWY/LB1 |
Departure
| Time | 2026-04-30 10:49 |
|---|---|
| Airport | Vienna International Airport (LOWW) |
Arrival
| Time | 2026-04-30 12:02 |
|---|---|
| Airport | Sofia Airport (LBSF) |
| Time | Latitude | Longitude | Altitude | Speed | Heading |
|---|---|---|---|---|---|
| 2026-04-30 10:24 | 48.11974 | 16.55842 | 610 ft | 0 kts | 295° |
| 2026-04-30 10:38 | 48.11972 | 16.55848 | 610 ft | 3 kts | 295° |
| 2026-04-30 10:39 | 48.11960 | 16.55885 | 610 ft | 2 kts | 295° |
| 2026-04-30 10:39 | 48.11959 | 16.55887 | 610 ft | 1 kts | 295° |
| 2026-04-30 10:40 | 48.11959 | 16.55890 | 610 ft | 2 kts | 295° |
| 2026-04-30 10:40 | 48.11951 | 16.55911 | 626 ft | 2 kts | 285° |
| 2026-04-30 10:40 | 48.11952 | 16.55935 | 617 ft | 2 kts | 237° |
| 2026-04-30 10:40 | 48.11960 | 16.55951 | 626 ft | 0 kts | 212° |
| 2026-04-30 10:42 | 48.11955 | 16.55946 | 626 ft | 2 kts | 212° |
| 2026-04-30 10:43 | 48.11927 | 16.55925 | 616 ft | 5 kts | 206° |
| 2026-04-30 10:43 | 48.11893 | 16.55899 | 610 ft | 6 kts | 206° |
| 2026-04-30 10:43 | 48.11846 | 16.55865 | 610 ft | 8 kts | 206° |
| 2026-04-30 10:43 | 48.11795 | 16.55829 | 610 ft | 8 kts | 205° |
| 2026-04-30 10:44 | 48.11745 | 16.55793 | 612 ft | 8 kts | 206° |
| 2026-04-30 10:44 | 48.11679 | 16.55831 | 615 ft | 18 kts | 119° |
| 2026-04-30 10:44 | 48.11626 | 16.55994 | 617 ft | 18 kts | 116° |
| 2026-04-30 10:44 | 48.11568 | 16.56173 | 613 ft | 21 kts | 116° |
| 2026-04-30 10:45 | 48.11501 | 16.56379 | 617 ft | 21 kts | 116° |
| 2026-04-30 10:45 | 48.11460 | 16.56504 | 612 ft | 19 kts | 115° |
| 2026-04-30 10:45 | 48.11401 | 16.56685 | 613 ft | 18 kts | 116° |
| 2026-04-30 10:45 | 48.11341 | 16.56870 | 617 ft | 21 kts | 116° |
| 2026-04-30 10:46 | 48.11281 | 16.57054 | 617 ft | 20 kts | 115° |
| 2026-04-30 10:46 | 48.11237 | 16.57190 | 614 ft | 12 kts | 116° |
| 2026-04-30 10:46 | 48.11169 | 16.57227 | 612 ft | 11 kts | 204° |
| 2026-04-30 10:46 | 48.11097 | 16.57170 | 613 ft | 11 kts | 207° |
| 2026-04-30 10:47 | 48.11055 | 16.57115 | 616 ft | 7 kts | 264° |
| 2026-04-30 10:47 | 48.11062 | 16.57080 | 610 ft | 0 kts | 296° |
| 2026-04-30 10:48 | 48.11113 | 16.56928 | 610 ft | 50 kts | 296° |
| 2026-04-30 10:48 | 48.11441 | 16.55920 | 615 ft | 144 kts | 295° |
| 2026-04-30 10:48 | 48.11922 | 16.54426 | 1035 ft | 173 kts | 300° |
| 2026-04-30 10:49 | 48.12461 | 16.52805 | 2057 ft | 182 kts | 300° |
| 2026-04-30 10:49 | 48.12661 | 16.50774 | 2883 ft | 212 kts | 258° |
| 2026-04-30 10:49 | 48.11829 | 16.48944 | 3940 ft | 226 kts | 214° |
| 2026-04-30 10:49 | 48.10330 | 16.48193 | 5101 ft | 229 kts | 185° |
| 2026-04-30 10:50 | 48.08754 | 16.47957 | 6263 ft | 232 kts | 184° |
| 2026-04-30 10:50 | 48.07090 | 16.47716 | 7379 ft | 236 kts | 183° |
| 2026-04-30 10:50 | 48.05435 | 16.47386 | 8384 ft | 248 kts | 192° |
| 2026-04-30 10:50 | 48.03693 | 16.46612 | 9069 ft | 275 kts | 200° |
| 2026-04-30 10:51 | 48.01843 | 16.45499 | 9876 ft | 295 kts | 194° |
| 2026-04-30 10:51 | 47.99723 | 16.45436 | 10573 ft | 315 kts | 163° |
| 2026-04-30 10:51 | 47.97660 | 16.46722 | 11345 ft | 328 kts | 151° |
| 2026-04-30 10:51 | 47.95561 | 16.48284 | 12398 ft | 335 kts | 150° |
| 2026-04-30 10:52 | 47.93459 | 16.49861 | 13458 ft | 341 kts | 150° |
| 2026-04-30 10:52 | 47.91307 | 16.51444 | 14474 ft | 348 kts | 151° |
| 2026-04-30 10:52 | 47.89125 | 16.53009 | 15379 ft | 354 kts | 152° |
| 2026-04-30 10:52 | 47.86853 | 16.54609 | 16316 ft | 360 kts | 152° |
| 2026-04-30 10:53 | 47.84545 | 16.56209 | 17246 ft | 366 kts | 152° |
| 2026-04-30 10:53 | 47.82230 | 16.57805 | 18147 ft | 372 kts | 152° |
| 2026-04-30 10:53 | 47.79831 | 16.59457 | 19001 ft | 378 kts | 152° |
| 2026-04-30 10:53 | 47.77423 | 16.61115 | 19796 ft | 383 kts | 152° |
| 2026-04-30 10:54 | 47.74994 | 16.62791 | 20610 ft | 387 kts | 152° |
| 2026-04-30 10:54 | 47.72507 | 16.64504 | 21441 ft | 391 kts | 152° |
| 2026-04-30 10:54 | 47.70025 | 16.66213 | 22274 ft | 395 kts | 152° |
| 2026-04-30 10:54 | 47.67516 | 16.67940 | 23090 ft | 400 kts | 152° |
| 2026-04-30 10:55 | 47.64977 | 16.69686 | 23916 ft | 404 kts | 152° |
| 2026-04-30 10:55 | 47.62412 | 16.71453 | 24620 ft | 409 kts | 152° |
| 2026-04-30 10:55 | 47.59792 | 16.73256 | 25317 ft | 413 kts | 152° |
| 2026-04-30 10:55 | 47.58017 | 16.74323 | 25762 ft | 418 kts | 158° |
| 2026-04-30 10:56 | 47.54179 | 16.75605 | 26637 ft | 428 kts | 171° |
| 2026-04-30 10:56 | 47.52183 | 16.75817 | 27064 ft | 431 kts | 174° |
| 2026-04-30 10:56 | 47.49147 | 16.76087 | 27709 ft | 435 kts | 174° |
| 2026-04-30 10:56 | 47.46117 | 16.76368 | 28298 ft | 439 kts | 174° |
| 2026-04-30 10:57 | 47.43056 | 16.76660 | 28896 ft | 443 kts | 174° |
| 2026-04-30 10:57 | 47.39961 | 16.76959 | 29481 ft | 446 kts | 174° |
| 2026-04-30 10:57 | 47.36810 | 16.77267 | 30081 ft | 449 kts | 174° |
| 2026-04-30 10:57 | 47.33670 | 16.77576 | 30624 ft | 453 kts | 174° |
| 2026-04-30 10:58 | 47.30510 | 16.77883 | 31061 ft | 457 kts | 174° |
| 2026-04-30 10:58 | 47.27323 | 16.78185 | 31516 ft | 461 kts | 175° |
| 2026-04-30 10:58 | 47.24058 | 16.78493 | 31933 ft | 465 kts | 175° |
| 2026-04-30 10:58 | 47.20814 | 16.78800 | 32406 ft | 467 kts | 175° |
| 2026-04-30 10:59 | 47.17533 | 16.79112 | 32997 ft | 466 kts | 175° |
| 2026-04-30 10:59 | 47.14290 | 16.79424 | 33570 ft | 466 kts | 176° |
| 2026-04-30 10:59 | 47.11062 | 16.79735 | 34151 ft | 466 kts | 176° |
| 2026-04-30 10:59 | 47.07828 | 16.80039 | 34677 ft | 466 kts | 176° |
| 2026-04-30 11:00 | 47.04551 | 16.80345 | 35183 ft | 465 kts | 176° |
| 2026-04-30 11:00 | 47.01320 | 16.80650 | 35661 ft | 465 kts | 176° |
| 2026-04-30 11:00 | 46.98090 | 16.80957 | 36134 ft | 465 kts | 176° |
| 2026-04-30 11:00 | 46.94864 | 16.81279 | 36598 ft | 464 kts | 174° |
| 2026-04-30 11:01 | 46.91695 | 16.82192 | 37048 ft | 463 kts | 161° |
| 2026-04-30 11:01 | 46.88753 | 16.84086 | 37363 ft | 462 kts | 147° |
| 2026-04-30 11:01 | 46.86201 | 16.86909 | 37427 ft | 454 kts | 133° |
| 2026-04-30 11:01 | 46.84213 | 16.90419 | 37431 ft | 447 kts | 120° |
| 2026-04-30 11:02 | 46.81364 | 16.98489 | 37430 ft | 444 kts | 114° |
| 2026-04-30 11:02 | 46.78576 | 17.06606 | 37435 ft | 445 kts | 114° |
| 2026-04-30 11:03 | 46.75787 | 17.14658 | 37436 ft | 445 kts | 114° |
| 2026-04-30 11:04 | 46.71579 | 17.26791 | 37431 ft | 444 kts | 114° |
| 2026-04-30 11:04 | 46.68811 | 17.34796 | 37441 ft | 445 kts | 115° |
| 2026-04-30 11:05 | 46.65987 | 17.42933 | 37403 ft | 446 kts | 115° |
| 2026-04-30 11:05 | 46.63154 | 17.51046 | 37394 ft | 447 kts | 115° |
| 2026-04-30 11:06 | 46.59880 | 17.58775 | 37391 ft | 450 kts | 124° |
| 2026-04-30 11:06 | 46.56252 | 17.66202 | 37401 ft | 451 kts | 124° |
| 2026-04-30 11:07 | 46.52603 | 17.73692 | 37392 ft | 451 kts | 124° |
| 2026-04-30 11:07 | 46.48950 | 17.81182 | 37390 ft | 452 kts | 124° |
| 2026-04-30 11:08 | 46.45300 | 17.88614 | 37382 ft | 452 kts | 124° |
| 2026-04-30 11:08 | 46.41620 | 17.96078 | 37400 ft | 452 kts | 124° |
| 2026-04-30 11:09 | 46.37970 | 18.03504 | 37382 ft | 453 kts | 124° |
| 2026-04-30 11:09 | 46.34288 | 18.10980 | 37364 ft | 453 kts | 124° |
| 2026-04-30 11:10 | 46.30604 | 18.18413 | 37362 ft | 455 kts | 124° |
| 2026-04-30 11:10 | 46.27508 | 18.24646 | 37362 ft | 455 kts | 124° |
| 2026-04-30 11:11 | 46.23805 | 18.32081 | 37380 ft | 456 kts | 124° |
| 2026-04-30 11:11 | 46.20040 | 18.39616 | 37371 ft | 457 kts | 124° |
| 2026-04-30 11:12 | 46.16318 | 18.47049 | 37371 ft | 457 kts | 124° |
| 2026-04-30 11:12 | 46.12560 | 18.54537 | 37373 ft | 457 kts | 124° |
| 2026-04-30 11:13 | 46.08802 | 18.62009 | 37378 ft | 457 kts | 124° |
| 2026-04-30 11:13 | 46.05067 | 18.69423 | 37370 ft | 457 kts | 124° |
| 2026-04-30 11:14 | 46.01300 | 18.76882 | 37349 ft | 458 kts | 125° |
| 2026-04-30 11:14 | 45.97521 | 18.84337 | 37349 ft | 458 kts | 125° |
| 2026-04-30 11:15 | 45.93728 | 18.91701 | 37358 ft | 459 kts | 129° |
| 2026-04-30 11:15 | 45.89076 | 18.98140 | 37348 ft | 459 kts | 138° |
| 2026-04-30 11:16 | 45.84304 | 19.04245 | 37347 ft | 459 kts | 138° |
| 2026-04-30 11:16 | 45.79506 | 19.10386 | 37343 ft | 459 kts | 138° |
| 2026-04-30 11:17 | 45.74728 | 19.16479 | 37330 ft | 459 kts | 138° |
| 2026-04-30 11:17 | 45.69915 | 19.22591 | 37340 ft | 459 kts | 139° |
| 2026-04-30 11:18 | 45.65133 | 19.28658 | 37332 ft | 460 kts | 139° |
| 2026-04-30 11:18 | 45.57920 | 19.37794 | 37332 ft | 460 kts | 139° |
| 2026-04-30 11:19 | 45.53130 | 19.43835 | 37333 ft | 459 kts | 139° |
| 2026-04-30 11:19 | 45.48303 | 19.49902 | 37308 ft | 459 kts | 139° |
| 2026-04-30 11:20 | 45.43505 | 19.55921 | 37310 ft | 460 kts | 139° |
| 2026-04-30 11:20 | 45.38671 | 19.61976 | 37314 ft | 460 kts | 139° |
| 2026-04-30 11:21 | 45.33860 | 19.67989 | 37321 ft | 460 kts | 139° |
| 2026-04-30 11:21 | 45.29053 | 19.73988 | 37325 ft | 460 kts | 139° |
| 2026-04-30 11:22 | 45.24209 | 19.80008 | 37326 ft | 459 kts | 139° |
| 2026-04-30 11:22 | 45.19339 | 19.85971 | 37301 ft | 459 kts | 140° |
| 2026-04-30 11:23 | 45.15260 | 19.90917 | 37303 ft | 459 kts | 140° |
| 2026-04-30 11:24 | 45.07918 | 19.99790 | 37312 ft | 459 kts | 141° |
| 2026-04-30 11:24 | 45.03073 | 20.05660 | 37308 ft | 459 kts | 140° |
| 2026-04-30 11:25 | 44.95800 | 20.14458 | 37321 ft | 459 kts | 141° |
| 2026-04-30 11:26 | 44.86072 | 20.26152 | 37322 ft | 459 kts | 141° |
| 2026-04-30 11:26 | 44.81212 | 20.31974 | 37318 ft | 459 kts | 141° |
| 2026-04-30 11:27 | 44.76338 | 20.37798 | 37316 ft | 459 kts | 141° |
| 2026-04-30 11:27 | 44.71461 | 20.43592 | 37312 ft | 459 kts | 141° |
| 2026-04-30 11:28 | 44.64124 | 20.52271 | 37288 ft | 459 kts | 142° |
| 2026-04-30 11:29 | 44.59229 | 20.58046 | 37279 ft | 460 kts | 142° |
| 2026-04-30 11:29 | 44.51878 | 20.66720 | 37270 ft | 460 kts | 142° |
| 2026-04-30 11:30 | 44.44532 | 20.75366 | 37244 ft | 460 kts | 143° |
| 2026-04-30 11:31 | 44.39616 | 20.81112 | 37248 ft | 460 kts | 143° |
| 2026-04-30 11:31 | 44.34707 | 20.86840 | 37256 ft | 460 kts | 143° |
| 2026-04-30 11:32 | 44.29820 | 20.92544 | 37254 ft | 460 kts | 143° |
| 2026-04-30 11:32 | 44.24902 | 20.98269 | 37263 ft | 460 kts | 143° |
| 2026-04-30 11:33 | 44.17514 | 21.06842 | 37238 ft | 460 kts | 143° |
| 2026-04-30 11:33 | 44.12588 | 21.12536 | 37255 ft | 460 kts | 143° |
| 2026-04-30 11:34 | 44.07665 | 21.18222 | 37259 ft | 460 kts | 143° |
| 2026-04-30 11:34 | 44.02737 | 21.23891 | 37266 ft | 459 kts | 144° |
| 2026-04-30 11:35 | 43.97803 | 21.29552 | 37270 ft | 459 kts | 144° |
| 2026-04-30 11:35 | 43.92841 | 21.35237 | 37249 ft | 459 kts | 144° |
| 2026-04-30 11:36 | 43.87911 | 21.40876 | 37260 ft | 459 kts | 144° |
| 2026-04-30 11:36 | 43.82974 | 21.46521 | 37265 ft | 460 kts | 144° |
| 2026-04-30 11:37 | 43.78041 | 21.52144 | 37269 ft | 459 kts | 144° |
| 2026-04-30 11:37 | 43.73093 | 21.57758 | 37271 ft | 459 kts | 144° |
| 2026-04-30 11:38 | 43.68261 | 21.63557 | 37267 ft | 463 kts | 136° |
| 2026-04-30 11:38 | 43.64118 | 21.70408 | 37251 ft | 465 kts | 133° |
| 2026-04-30 11:39 | 43.59992 | 21.77299 | 37259 ft | 467 kts | 133° |
| 2026-04-30 11:39 | 43.55835 | 21.84195 | 37269 ft | 467 kts | 133° |
| 2026-04-30 11:40 | 43.51668 | 21.91092 | 37266 ft | 468 kts | 133° |
| 2026-04-30 11:40 | 43.47469 | 21.98037 | 36859 ft | 469 kts | 134° |
| 2026-04-30 11:41 | 43.45372 | 22.01494 | 36436 ft | 470 kts | 134° |
| 2026-04-30 11:41 | 43.43274 | 22.04945 | 36022 ft | 470 kts | 134° |
| 2026-04-30 11:41 | 43.41173 | 22.08399 | 35604 ft | 471 kts | 135° |
| 2026-04-30 11:41 | 43.39069 | 22.11859 | 35168 ft | 472 kts | 135° |
| 2026-04-30 11:42 | 43.36957 | 22.15335 | 34784 ft | 473 kts | 135° |
| 2026-04-30 11:42 | 43.34817 | 22.18846 | 34414 ft | 473 kts | 137° |
| 2026-04-30 11:42 | 43.32702 | 22.22310 | 33968 ft | 472 kts | 137° |
| 2026-04-30 11:42 | 43.30598 | 22.25756 | 33501 ft | 469 kts | 137° |
| 2026-04-30 11:43 | 43.28484 | 22.29218 | 33031 ft | 465 kts | 137° |
| 2026-04-30 11:43 | 43.26415 | 22.32604 | 32532 ft | 461 kts | 138° |
| 2026-04-30 11:43 | 43.24365 | 22.35952 | 32035 ft | 456 kts | 139° |
| 2026-04-30 11:43 | 43.22300 | 22.39315 | 31530 ft | 452 kts | 139° |
| 2026-04-30 11:44 | 43.20285 | 22.42593 | 31006 ft | 448 kts | 139° |
| 2026-04-30 11:44 | 43.18259 | 22.45881 | 30470 ft | 443 kts | 140° |
| 2026-04-30 11:44 | 43.16281 | 22.49093 | 29897 ft | 439 kts | 140° |
| 2026-04-30 11:44 | 43.14980 | 22.51206 | 29496 ft | 436 kts | 140° |
| 2026-04-30 11:45 | 43.13026 | 22.54376 | 28899 ft | 433 kts | 140° |
| 2026-04-30 11:45 | 43.11088 | 22.57509 | 28276 ft | 430 kts | 139° |
| 2026-04-30 11:45 | 43.09127 | 22.60670 | 27524 ft | 430 kts | 139° |
| 2026-04-30 11:45 | 43.07178 | 22.63804 | 26820 ft | 431 kts | 139° |
| 2026-04-30 11:46 | 43.05238 | 22.66927 | 26126 ft | 431 kts | 139° |
| 2026-04-30 11:46 | 43.03296 | 22.70058 | 25386 ft | 432 kts | 138° |
| 2026-04-30 11:46 | 43.01326 | 22.73235 | 24679 ft | 433 kts | 138° |
| 2026-04-30 11:46 | 42.99368 | 22.76391 | 23973 ft | 432 kts | 137° |
| 2026-04-30 11:47 | 42.97408 | 22.79549 | 23131 ft | 432 kts | 137° |
| 2026-04-30 11:47 | 42.95478 | 22.82650 | 22282 ft | 424 kts | 137° |
| 2026-04-30 11:47 | 42.93574 | 22.85707 | 21443 ft | 411 kts | 137° |
| 2026-04-30 11:47 | 42.91742 | 22.88638 | 20597 ft | 401 kts | 137° |
| 2026-04-30 11:48 | 42.89954 | 22.91488 | 19780 ft | 390 kts | 136° |
| 2026-04-30 11:48 | 42.88207 | 22.94258 | 18982 ft | 380 kts | 136° |
| 2026-04-30 11:48 | 42.86439 | 22.97050 | 18075 ft | 370 kts | 136° |
| 2026-04-30 11:48 | 42.84790 | 22.99651 | 17185 ft | 363 kts | 136° |
| 2026-04-30 11:49 | 42.83136 | 23.02261 | 16331 ft | 355 kts | 136° |
| 2026-04-30 11:49 | 42.81532 | 23.04802 | 15550 ft | 347 kts | 136° |
| 2026-04-30 11:49 | 42.79967 | 23.07285 | 14767 ft | 340 kts | 136° |
| 2026-04-30 11:49 | 42.78379 | 23.09807 | 13987 ft | 333 kts | 136° |
| 2026-04-30 11:50 | 42.76894 | 23.12161 | 13394 ft | 323 kts | 135° |
| 2026-04-30 11:50 | 42.75430 | 23.14474 | 13090 ft | 320 kts | 135° |
| 2026-04-30 11:50 | 42.73981 | 23.16749 | 12779 ft | 318 kts | 135° |
| 2026-04-30 11:50 | 42.72539 | 23.19010 | 12274 ft | 316 kts | 135° |
| 2026-04-30 11:51 | 42.71094 | 23.21278 | 11736 ft | 312 kts | 134° |
| 2026-04-30 11:51 | 42.69695 | 23.23482 | 11208 ft | 306 kts | 134° |
| 2026-04-30 11:51 | 42.68315 | 23.25657 | 10692 ft | 303 kts | 134° |
| 2026-04-30 11:51 | 42.66937 | 23.27824 | 10180 ft | 299 kts | 134° |
| 2026-04-30 11:52 | 42.65575 | 23.29963 | 9616 ft | 295 kts | 133° |
| 2026-04-30 11:52 | 42.64227 | 23.32079 | 9057 ft | 294 kts | 133° |
| 2026-04-30 11:52 | 42.62969 | 23.34130 | 8512 ft | 279 kts | 126° |
| 2026-04-30 11:52 | 42.62042 | 23.36383 | 8075 ft | 264 kts | 112° |
| 2026-04-30 11:53 | 42.61520 | 23.38690 | 7806 ft | 245 kts | 100° |
| 2026-04-30 11:53 | 42.61330 | 23.40936 | 7360 ft | 240 kts | 93° |
| 2026-04-30 11:53 | 42.61200 | 23.43183 | 7130 ft | 236 kts | 92° |
| 2026-04-30 11:53 | 42.61066 | 23.45390 | 6849 ft | 232 kts | 91° |
| 2026-04-30 11:54 | 42.60934 | 23.47549 | 6652 ft | 227 kts | 91° |
| 2026-04-30 11:54 | 42.60801 | 23.49648 | 6529 ft | 219 kts | 92° |
| 2026-04-30 11:54 | 42.60678 | 23.51607 | 6453 ft | 208 kts | 90° |
| 2026-04-30 11:54 | 42.60557 | 23.53538 | 6213 ft | 198 kts | 91° |
| 2026-04-30 11:55 | 42.60442 | 23.55409 | 5980 ft | 197 kts | 91° |
| 2026-04-30 11:55 | 42.60328 | 23.57280 | 5970 ft | 198 kts | 90° |
| 2026-04-30 11:55 | 42.60217 | 23.59086 | 5866 ft | 194 kts | 91° |
| 2026-04-30 11:55 | 42.60399 | 23.60880 | 5643 ft | 180 kts | 63° |
| 2026-04-30 11:56 | 42.61085 | 23.62147 | 5486 ft | 160 kts | 37° |
| 2026-04-30 11:56 | 42.62030 | 23.62823 | 5214 ft | 151 kts | 18° |
| 2026-04-30 11:56 | 42.63028 | 23.63309 | 4928 ft | 150 kts | 17° |
| 2026-04-30 11:56 | 42.64020 | 23.63790 | 4547 ft | 153 kts | 17° |
| 2026-04-30 11:57 | 42.65034 | 23.64281 | 4113 ft | 156 kts | 18° |
| 2026-04-30 11:57 | 42.66019 | 23.64765 | 4078 ft | 151 kts | 17° |
| 2026-04-30 11:57 | 42.67050 | 23.64864 | 4094 ft | 149 kts | 346° |
| 2026-04-30 11:57 | 42.67930 | 23.64141 | 4090 ft | 151 kts | 315° |
| 2026-04-30 11:58 | 42.68362 | 23.62846 | 4085 ft | 157 kts | 283° |
| 2026-04-30 11:58 | 42.68459 | 23.61335 | 4048 ft | 160 kts | 279° |
| 2026-04-30 11:58 | 42.68534 | 23.59833 | 3699 ft | 156 kts | 277° |
| 2026-04-30 11:58 | 42.68609 | 23.58369 | 3307 ft | 154 kts | 278° |
| 2026-04-30 11:59 | 42.68666 | 23.57387 | 3139 ft | 156 kts | 278° |
| 2026-04-30 11:59 | 42.68752 | 23.55913 | 2765 ft | 153 kts | 277° |
| 2026-04-30 11:59 | 42.68799 | 23.54438 | 2318 ft | 153 kts | 271° |
| 2026-04-30 11:59 | 42.68785 | 23.53106 | 2248 ft | 128 kts | 272° |
| 2026-04-30 12:00 | 42.68765 | 23.51936 | 2083 ft | 117 kts | 272° |
| 2026-04-30 12:00 | 42.68810 | 23.50784 | 2076 ft | 139 kts | 277° |
| 2026-04-30 12:00 | 42.68957 | 23.49454 | 2221 ft | 133 kts | 284° |
| 2026-04-30 12:00 | 42.69138 | 23.48221 | 2263 ft | 127 kts | 282° |
| 2026-04-30 12:01 | 42.69289 | 23.47017 | 2180 ft | 146 kts | 280° |
| 2026-04-30 12:01 | 42.69408 | 23.45598 | 2047 ft | 148 kts | 278° |
| 2026-04-30 12:01 | 42.69494 | 23.44220 | 1872 ft | 136 kts | 277° |
| 2026-04-30 12:01 | 42.69574 | 23.43038 | 1754 ft | 111 kts | 273° |
| 2026-04-30 12:02 | 42.69621 | 23.42234 | 1746 ft | 61 kts | 275° |
| 2026-04-30 12:02 | 42.69636 | 23.41764 | 1751 ft | 31 kts | 261° |
| 2026-04-30 12:02 | 42.69583 | 23.41559 | 1751 ft | 16 kts | 246° |
| 2026-04-30 12:02 | 42.69532 | 23.41417 | 1748 ft | 16 kts | 246° |
| 2026-04-30 12:03 | 42.69529 | 23.41406 | 1750 ft | 0 kts | 246° |
| 2026-04-30 12:03 | 42.69514 | 23.41361 | 1748 ft | 4 kts | 246° |
| 2026-04-30 12:03 | 42.69488 | 23.41274 | 1750 ft | 13 kts | 250° |
| 2026-04-30 12:04 | 42.69427 | 23.41211 | 1753 ft | 10 kts | 191° |
| 2026-04-30 12:04 | 42.69345 | 23.41185 | 1753 ft | 13 kts | 191° |
| 2026-04-30 12:04 | 42.69270 | 23.41165 | 1753 ft | 10 kts | 191° |
| 2026-04-30 12:04 | 42.69205 | 23.41146 | 1751 ft | 9 kts | 192° |
| 2026-04-30 12:05 | 42.69153 | 23.41129 | 1753 ft | 8 kts | 200° |
| 2026-04-30 12:05 | 42.69116 | 23.41056 | 1747 ft | 9 kts | 253° |
| 2026-04-30 12:05 | 42.69098 | 23.40976 | 1749 ft | 7 kts | 252° |
| 2026-04-30 12:05 | 42.69075 | 23.40876 | 1749 ft | 15 kts | 252° |
| 2026-04-30 12:06 | 42.69058 | 23.40774 | 1749 ft | 6 kts | 276° |
| 2026-04-30 12:06 | 42.69056 | 23.40727 | 1750 ft | 3 kts | 216° |
| 2026-04-30 12:06 | 42.69030 | 23.40715 | 1753 ft | 3 kts | 196° |
| 2026-04-30 12:06 | 42.69018 | 23.40710 | 1751 ft | 2 kts | 196° |
| 2026-04-30 12:07 | 42.69005 | 23.40705 | 1748 ft | 2 kts | 196° |
| 2026-04-30 12:07 | 42.68995 | 23.40701 | 1753 ft | 3 kts | 196° |
| 2026-04-30 12:07 | 42.68994 | 23.40701 | 1753 ft | 0 kts | 196° |